createdAt,value
2022-12-15T00:00:19.282Z,92.93
2022-12-15T00:03:05.262Z,92.67
2022-12-15T00:05:52.647Z,92.84
2022-12-15T00:08:38.064Z,92.86
2022-12-15T00:11:23.550Z,92.80
2022-12-15T00:14:08.939Z,92.57
2022-12-15T00:16:54.465Z,92.69
2022-12-15T00:19:40.221Z,92.62
2022-12-15T00:22:27.063Z,92.74
2022-12-15T00:25:12.770Z,92.63
2022-12-15T00:27:58.155Z,92.72
2022-12-15T00:30:43.496Z,92.84
2022-12-15T00:33:29.762Z,92.96
2022-12-15T00:36:16.637Z,92.92
2022-12-15T00:38:46.140Z,92.84
2022-12-15T00:41:15.289Z,92.99
2022-12-15T00:43:43.208Z,93.10
2022-12-15T00:46:29.164Z,92.97
2022-12-15T00:48:57.222Z,93.14
2022-12-15T00:51:42.925Z,92.97
2022-12-15T00:54:29.989Z,92.74
2022-12-15T00:57:15.609Z,92.39
2022-12-15T01:00:01.054Z,92.24
2022-12-15T01:02:48.173Z,92.16
2022-12-15T01:05:33.807Z,92.27
2022-12-15T01:08:19.233Z,92.17
2022-12-15T01:11:05.989Z,92.32
2022-12-15T01:13:51.437Z,92.30
2022-12-15T01:16:36.847Z,92.48
2022-12-15T01:19:21.913Z,92.37
2022-12-15T01:21:49.944Z,92.31
2022-12-15T01:24:17.781Z,92.42
2022-12-15T01:26:47.032Z,92.27
2022-12-15T01:29:15.272Z,92.32
2022-12-15T01:31:44.055Z,92.22
2022-12-15T01:34:12.004Z,92.24
2022-12-15T01:36:39.810Z,92.38
2022-12-15T01:39:07.627Z,92.43
2022-12-15T01:41:34.655Z,92.21
2022-12-15T01:44:17.257Z,92.44
2022-12-15T01:46:45.228Z,92.38
2022-12-15T01:49:15.599Z,92.42
2022-12-15T01:51:45.460Z,92.24
2022-12-15T01:54:14.518Z,92.17
2022-12-15T01:56:46.096Z,92.36
2022-12-15T01:59:16.197Z,92.27
2022-12-15T02:01:45.693Z,92.16
2022-12-15T02:04:19.034Z,92.17
2022-12-15T02:06:47.095Z,92.12
2022-12-15T02:09:15.911Z,92.04
2022-12-15T02:12:02.557Z,92.12
2022-12-15T02:14:39.878Z,91.95
2022-12-15T02:17:17.699Z,92.07
2022-12-15T02:20:00.766Z,92.20
2022-12-15T02:22:36.211Z,92.22
2022-12-15T02:25:16.189Z,92.08
2022-12-15T02:27:59.226Z,91.91
2022-12-15T02:30:37.194Z,91.83
2022-12-15T02:33:09.011Z,91.77
2022-12-15T02:35:43.218Z,91.77
2022-12-15T02:38:11.222Z,91.67
2022-12-15T02:40:39.141Z,91.45
2022-12-15T02:43:09.702Z,91.09
2022-12-15T02:45:46.405Z,90.99
2022-12-15T02:48:22.794Z,91.48
2022-12-15T02:50:53.664Z,91.53
2022-12-15T02:53:32.813Z,91.66
2022-12-15T02:56:05.276Z,91.63
2022-12-15T02:58:38.930Z,91.75
2022-12-15T03:01:11.984Z,91.52
2022-12-15T03:03:40.366Z,91.40
2022-12-15T03:06:08.309Z,91.17
2022-12-15T03:08:36.139Z,91.17
2022-12-15T03:11:04.678Z,91.16
2022-12-15T03:13:33.039Z,91.34
2022-12-15T03:16:01.509Z,91.15
2022-12-15T03:18:30.734Z,91.30
2022-12-15T03:20:58.658Z,91.48
2022-12-15T03:23:26.514Z,91.18
2022-12-15T03:25:55.762Z,91.30
2022-12-15T03:28:24.462Z,91.15
2022-12-15T03:30:52.558Z,90.84
2022-12-15T03:33:21.567Z,90.80
2022-12-15T03:35:51.245Z,90.78
2022-12-15T03:38:19.381Z,90.97
2022-12-15T03:40:47.552Z,91.09
2022-12-15T03:43:15.387Z,91.09
2022-12-15T03:45:43.390Z,91.19
2022-12-15T03:48:11.282Z,91.52
2022-12-15T03:50:39.155Z,91.37
2022-12-15T03:53:08.409Z,91.59
2022-12-15T03:55:36.283Z,91.44
2022-12-15T03:58:04.127Z,91.45
2022-12-15T04:00:34.802Z,91.28
2022-12-15T04:03:04.529Z,91.32
2022-12-15T04:05:33.256Z,91.13
2022-12-15T04:08:01.799Z,91.04
2022-12-15T04:10:34.642Z,90.72
2022-12-15T04:13:03.810Z,90.61
2022-12-15T04:15:32.031Z,90.97
2022-12-15T04:17:59.901Z,91.31
2022-12-15T04:20:26.781Z,91.29
2022-12-15T04:22:54.690Z,91.08
2022-12-15T04:25:41.561Z,91.05
2022-12-15T04:28:29.172Z,91.09
2022-12-15T04:31:15.779Z,91.22
2022-12-15T04:34:02.917Z,91.17
2022-12-15T04:36:48.779Z,91.03
2022-12-15T04:39:34.984Z,90.83
2022-12-15T04:42:20.878Z,90.86
2022-12-15T04:45:08.452Z,90.92
2022-12-15T04:47:53.925Z,91.16
2022-12-15T04:50:39.391Z,91.29
2022-12-15T04:53:28.877Z,91.35
2022-12-15T04:56:18.437Z,91.25
2022-12-15T04:59:04.324Z,91.09
2022-12-15T05:01:51.568Z,91.21
2022-12-15T05:04:37.937Z,91.08
2022-12-15T05:07:23.214Z,90.71
2022-12-15T05:10:14.692Z,91.06
2022-12-15T05:13:00.688Z,91.15
2022-12-15T05:15:46.193Z,91.32
2022-12-15T05:18:33.169Z,91.58
2022-12-15T05:21:18.817Z,91.49
2022-12-15T05:24:04.270Z,91.66
2022-12-15T05:26:53.035Z,91.33
2022-12-15T05:29:38.664Z,91.32
2022-12-15T05:32:06.728Z,91.22
2022-12-15T05:34:36.863Z,90.94
2022-12-15T05:37:06.056Z,91.01
2022-12-15T05:39:34.176Z,90.92
2022-12-15T05:42:02.095Z,91.17
2022-12-15T05:44:30.733Z,91.17
2022-12-15T05:46:58.522Z,91.24
2022-12-15T05:49:26.308Z,90.89
2022-12-15T05:51:57.285Z,91.06
2022-12-15T05:54:25.532Z,91.29
2022-12-15T05:56:53.716Z,91.32
2022-12-15T05:59:22.044Z,91.33
2022-12-15T06:01:50.543Z,91.15
2022-12-15T06:04:19.588Z,91.30
2022-12-15T06:06:47.588Z,91.50
2022-12-15T06:09:16.925Z,91.33
2022-12-15T06:11:44.757Z,91.27
2022-12-15T06:14:12.710Z,91.33
2022-12-15T06:16:50.312Z,91.56
2022-12-15T06:19:19.868Z,91.33
2022-12-15T06:21:47.750Z,91.50
2022-12-15T06:24:17.024Z,91.32
2022-12-15T06:26:44.912Z,91.46
2022-12-15T06:29:14.410Z,91.49
2022-12-15T06:31:43.126Z,91.17
2022-12-15T06:34:12.790Z,91.20
2022-12-15T06:36:40.987Z,91.29
2022-12-15T06:39:11.644Z,91.45
2022-12-15T06:41:41.292Z,91.15
2022-12-15T06:44:09.221Z,91.09
2022-12-15T06:46:37.147Z,90.77
2022-12-15T06:49:05.223Z,90.99
2022-12-15T06:51:33.948Z,90.88
2022-12-15T06:54:01.837Z,91.06
2022-12-15T06:56:33.968Z,90.72
2022-12-15T06:59:04.628Z,90.88
2022-12-15T07:01:37.212Z,91.09
2022-12-15T07:04:06.997Z,91.09
2022-12-15T07:06:37.131Z,91.25
2022-12-15T07:09:07.637Z,91.27
2022-12-15T07:11:37.987Z,90.74
2022-12-15T07:14:07.412Z,91.11
2022-12-15T07:16:36.832Z,91.17
2022-12-15T07:19:05.331Z,91.46
2022-12-15T07:21:34.615Z,91.26
2022-12-15T07:24:04.008Z,91.20
2022-12-15T07:26:32.118Z,91.37
2022-12-15T07:29:00.365Z,90.95
2022-12-15T07:31:31.192Z,90.77
2022-12-15T07:33:59.214Z,90.90
2022-12-15T07:36:29.344Z,90.67
2022-12-15T07:39:01.844Z,90.35
2022-12-15T07:41:30.195Z,90.27
2022-12-15T07:43:58.824Z,90.21
2022-12-15T07:46:30.158Z,89.89
2022-12-15T07:48:58.090Z,89.98
2022-12-15T07:51:26.185Z,89.76
2022-12-15T07:53:54.433Z,89.66
2022-12-15T07:56:22.253Z,89.56
2022-12-15T07:58:50.653Z,89.23
2022-12-15T08:01:19.066Z,89.25
2022-12-15T08:03:49.382Z,89.16
2022-12-15T08:06:17.725Z,89.00
2022-12-15T08:08:50.501Z,89.02
2022-12-15T08:11:19.678Z,88.43
2022-12-15T08:14:04.394Z,88.49
2022-12-15T08:16:34.703Z,88.96
2022-12-15T08:19:05.284Z,88.71
2022-12-15T08:21:33.248Z,88.58
2022-12-15T08:24:01.919Z,88.19
2022-12-15T08:26:30.999Z,88.28
2022-12-15T08:29:24.581Z,88.11
2022-12-15T08:31:51.125Z,87.90
2022-12-15T08:34:20.360Z,88.28
2022-12-15T08:36:48.176Z,88.13
2022-12-15T08:39:16.552Z,87.83
2022-12-15T08:41:44.977Z,87.60
2022-12-15T08:44:12.848Z,87.71
2022-12-15T08:46:40.709Z,87.51
2022-12-15T08:49:09.136Z,86.93
2022-12-15T08:51:38.636Z,86.84
2022-12-15T08:54:06.524Z,86.87
2022-12-15T08:56:34.350Z,86.26
2022-12-15T08:59:02.922Z,85.97
2022-12-15T09:01:32.773Z,85.97
2022-12-15T09:04:01.511Z,86.58
2022-12-15T09:06:30.927Z,85.95
2022-12-15T09:09:01.250Z,85.98
2022-12-15T09:11:30.350Z,85.61
2022-12-15T09:13:58.523Z,86.20
2022-12-15T09:16:27.743Z,86.23
2022-12-15T09:18:56.865Z,85.81
2022-12-15T09:21:26.677Z,85.54
2022-12-15T09:23:55.620Z,84.89
2022-12-15T09:26:24.792Z,85.17
2022-12-15T09:28:54.696Z,84.11
2022-12-15T09:31:23.593Z,82.99
2022-12-15T09:33:52.367Z,83.33
2022-12-15T09:36:23.907Z,84.06
2022-12-15T09:38:51.805Z,83.63
2022-12-15T09:41:23.053Z,83.25
2022-12-15T09:43:55.303Z,82.46
2022-12-15T09:46:27.692Z,82.10
2022-12-15T09:48:56.705Z,81.92
2022-12-15T09:51:30.259Z,81.36
2022-12-15T09:53:58.953Z,80.81
2022-12-15T09:56:33.563Z,81.50
2022-12-15T09:59:05.424Z,82.45
2022-12-15T10:01:38.402Z,81.56
2022-12-15T10:04:08.863Z,82.06
2022-12-15T10:06:40.573Z,81.96
2022-12-15T10:09:19.368Z,82.56
2022-12-15T10:11:50.989Z,81.36
2022-12-15T10:14:28.060Z,81.25
2022-12-15T10:17:01.405Z,80.67
2022-12-15T10:19:34.786Z,81.71
2022-12-15T10:22:03.175Z,81.40
2022-12-15T10:27:28.178Z,81.98
2022-12-15T10:30:01.953Z,82.39
2022-12-15T10:32:40.950Z,81.61
2022-12-15T10:35:15.305Z,81.69
2022-12-15T10:37:43.559Z,82.14
2022-12-15T10:40:15.671Z,82.42
2022-12-15T10:42:47.074Z,80.98
2022-12-15T10:45:31.074Z,81.51
2022-12-15T10:48:02.550Z,80.68
2022-12-15T10:50:31.901Z,79.99
2022-12-15T10:52:59.683Z,79.79
2022-12-15T10:55:33.423Z,80.30
2022-12-15T10:58:02.559Z,80.27
2022-12-15T11:00:31.310Z,80.75
2022-12-15T11:03:01.294Z,81.11
2022-12-15T11:05:29.413Z,81.69
2022-12-15T11:08:14.140Z,81.24
2022-12-15T11:11:07.967Z,80.98
2022-12-15T11:13:36.771Z,81.42
2022-12-15T11:16:12.002Z,82.08
2022-12-15T11:18:44.123Z,81.76
2022-12-15T11:21:13.763Z,82.55
2022-12-15T11:23:55.237Z,82.48
2022-12-15T11:26:26.536Z,82.82
2022-12-15T11:28:57.699Z,82.56
2022-12-15T11:31:28.945Z,82.62
2022-12-15T11:33:58.305Z,82.95
2022-12-15T11:36:33.561Z,82.50
2022-12-15T11:39:03.605Z,82.67
2022-12-15T11:41:36.181Z,82.42
2022-12-15T11:44:25.202Z,81.79
2022-12-15T11:46:56.672Z,83.58
2022-12-15T11:49:41.365Z,83.17
2022-12-15T11:52:13.734Z,83.18
2022-12-15T11:54:45.891Z,83.12
2022-12-15T11:57:24.641Z,83.04
2022-12-15T11:59:58.411Z,83.39
2022-12-15T12:02:34.692Z,83.00
2022-12-15T12:05:15.483Z,83.46
2022-12-15T12:07:46.525Z,83.89
2022-12-15T12:10:26.534Z,84.02
2022-12-15T12:13:00.130Z,83.76
2022-12-15T12:15:31.292Z,84.29
2022-12-15T12:18:04.046Z,85.20
2022-12-15T12:20:40.889Z,84.72
2022-12-15T12:23:16.941Z,83.93
2022-12-15T12:25:47.203Z,84.53
2022-12-15T12:28:20.356Z,83.27
2022-12-15T12:30:50.570Z,84.42
2022-12-15T12:33:24.297Z,83.49
2022-12-15T12:35:55.179Z,83.11
2022-12-15T12:38:26.130Z,83.99
2022-12-15T12:41:02.621Z,84.78
2022-12-15T12:43:34.959Z,85.36
2022-12-15T12:46:06.192Z,85.02
2022-12-15T12:48:37.682Z,84.77
2022-12-15T12:51:12.510Z,85.47
2022-12-15T12:53:42.024Z,84.88
2022-12-15T12:56:29.721Z,84.48
2022-12-15T12:58:57.717Z,84.47
2022-12-15T13:01:28.323Z,84.30
2022-12-15T13:04:07.712Z,84.82
2022-12-15T13:06:54.836Z,84.74
2022-12-15T13:09:25.177Z,85.25
2022-12-15T13:11:58.140Z,85.90
2022-12-15T13:14:36.764Z,85.65
2022-12-15T13:17:26.181Z,85.35
2022-12-15T13:20:29.112Z,86.78
2022-12-15T13:23:17.707Z,86.95
2022-12-15T13:25:53.735Z,86.71
2022-12-15T13:28:40.011Z,87.12
2022-12-15T13:31:29.288Z,87.09
2022-12-15T13:34:00.363Z,87.25
2022-12-15T13:36:47.009Z,87.53
2022-12-15T13:39:34.575Z,87.03
2022-12-15T13:42:33.561Z,87.02
2022-12-15T13:45:21.221Z,86.74
2022-12-15T13:47:52.429Z,86.49
2022-12-15T13:50:28.068Z,87.22
2022-12-15T13:55:55.104Z,86.95
2022-12-15T13:58:25.055Z,87.11
2022-12-15T14:00:55.973Z,87.38
2022-12-15T14:03:24.269Z,87.47
2022-12-15T14:05:53.175Z,87.24
2022-12-15T14:08:22.760Z,87.79
2022-12-15T14:10:52.113Z,88.32
2022-12-15T14:13:21.396Z,88.24
2022-12-15T14:15:52.470Z,88.29
2022-12-15T14:18:26.011Z,88.38
2022-12-15T14:20:54.070Z,88.36
2022-12-15T14:23:22.959Z,88.40
2022-12-15T14:25:54.682Z,88.37
2022-12-15T14:28:27.631Z,88.71
2022-12-15T14:30:58.087Z,88.64
2022-12-15T14:33:29.917Z,88.67
2022-12-15T14:35:58.889Z,88.72
2022-12-15T14:38:29.152Z,88.67
2022-12-15T14:40:58.257Z,88.73
2022-12-15T14:43:27.579Z,88.92
2022-12-15T14:45:57.528Z,88.92
2022-12-15T14:48:44.858Z,88.89
2022-12-15T14:51:14.992Z,88.73
2022-12-15T14:53:44.657Z,89.09
2022-12-15T14:56:29.646Z,88.94
2022-12-15T14:59:00.375Z,88.49
2022-12-15T15:01:30.970Z,89.00
2022-12-15T15:03:14.741Z,81.54
2022-12-15T15:04:02.612Z,89.06
2022-12-15T15:06:39.322Z,89.43
2022-12-15T15:09:17.795Z,88.97
2022-12-15T15:11:46.702Z,89.25
2022-12-15T15:14:17.854Z,89.40
2022-12-15T15:16:46.486Z,89.57
2022-12-15T15:19:19.324Z,89.69
2022-12-15T15:21:49.188Z,89.79
2022-12-15T15:24:23.614Z,89.84
2022-12-15T15:26:51.530Z,89.83
2022-12-15T15:29:32.911Z,89.93
2022-12-15T15:32:08.776Z,89.80
2022-12-15T15:34:36.810Z,89.92
2022-12-15T15:37:17.797Z,90.00
2022-12-15T15:39:46.594Z,89.92
2022-12-15T15:42:14.476Z,89.73
2022-12-15T15:44:42.373Z,89.90
2022-12-15T15:47:17.297Z,90.13
2022-12-15T15:49:45.948Z,90.17
2022-12-15T15:52:15.237Z,90.32
2022-12-15T15:54:43.663Z,90.14
2022-12-15T15:57:14.742Z,90.25
2022-12-15T15:59:46.813Z,90.17
2022-12-15T16:02:15.472Z,90.07
2022-12-15T16:04:44.205Z,90.32
2022-12-15T16:07:18.034Z,90.54
2022-12-15T16:09:46.044Z,90.52
2022-12-15T16:12:19.312Z,90.23
2022-12-15T16:14:47.280Z,90.57
2022-12-15T16:17:16.723Z,90.45
2022-12-15T16:19:44.823Z,90.59
2022-12-15T16:22:14.949Z,90.45
2022-12-15T16:24:44.855Z,90.75
2022-12-15T16:27:13.322Z,90.70
2022-12-15T16:29:42.053Z,91.04
2022-12-15T16:32:10.959Z,92.13
2022-12-15T16:34:39.170Z,91.43
2022-12-15T16:37:11.564Z,90.91
2022-12-15T16:39:39.617Z,90.77
2022-12-15T16:42:12.901Z,90.95
2022-12-15T16:44:40.714Z,91.08
2022-12-15T16:47:09.850Z,91.08
2022-12-15T16:49:40.478Z,90.76
2022-12-15T16:52:09.820Z,90.82
2022-12-15T16:54:37.895Z,90.96
2022-12-15T16:57:07.647Z,91.04
2022-12-15T16:59:36.951Z,91.29
2022-12-15T17:02:21.585Z,91.11
2022-12-15T17:04:50.259Z,91.07
2022-12-15T17:07:20.984Z,91.14
2022-12-15T17:09:50.077Z,91.29
2022-12-15T17:12:18.620Z,91.44
2022-12-15T17:14:48.407Z,91.26
2022-12-15T17:17:17.146Z,91.39
2022-12-15T17:20:11.775Z,91.32
2022-12-15T17:22:34.009Z,91.51
2022-12-15T17:25:02.745Z,91.76
2022-12-15T17:27:32.020Z,91.98
2022-12-15T17:30:01.622Z,91.64
2022-12-15T17:32:30.163Z,91.75
2022-12-15T17:34:58.131Z,91.79
2022-12-15T17:37:28.115Z,91.89
2022-12-15T17:39:59.888Z,92.00
2022-12-15T17:42:27.711Z,92.33
2022-12-15T17:44:55.599Z,92.21
2022-12-15T17:47:25.497Z,92.37
2022-12-15T17:49:53.395Z,92.07
2022-12-15T17:52:26.141Z,92.17
2022-12-15T17:54:54.138Z,92.05
2022-12-15T17:57:22.078Z,92.06
2022-12-15T17:59:50.032Z,92.00
2022-12-15T18:02:18.101Z,92.06
2022-12-15T18:04:47.479Z,92.05
2022-12-15T18:07:18.040Z,92.03
2022-12-15T18:09:46.091Z,91.96
2022-12-15T18:12:18.392Z,91.81
2022-12-15T18:14:46.371Z,91.71
2022-12-15T18:17:14.514Z,91.71
2022-12-15T18:19:42.567Z,91.84
2022-12-15T18:22:15.735Z,92.03
2022-12-15T18:24:43.644Z,92.08
2022-12-15T18:27:20.902Z,91.97
2022-12-15T18:29:48.966Z,91.76
2022-12-15T18:32:18.107Z,91.88
2022-12-15T18:34:46.842Z,92.15
2022-12-15T18:37:17.856Z,92.19
2022-12-15T18:39:46.185Z,92.56
2022-12-15T18:42:15.558Z,92.57
2022-12-15T18:44:46.271Z,92.40
2022-12-15T18:47:16.690Z,92.12
2022-12-15T18:49:44.934Z,92.10
2022-12-15T18:52:16.527Z,92.28
2022-12-15T18:54:47.018Z,92.19
2022-12-15T18:57:23.849Z,92.12
2022-12-15T18:59:51.804Z,91.97
2022-12-15T19:02:22.243Z,91.76
2022-12-15T19:04:50.318Z,91.94
2022-12-15T19:07:18.645Z,91.90
2022-12-15T19:09:47.856Z,91.80
2022-12-15T19:12:18.833Z,91.60
2022-12-15T19:14:47.648Z,91.87
2022-12-15T19:17:34.146Z,91.87
2022-12-15T19:20:19.717Z,91.72
2022-12-15T19:22:48.608Z,91.92
2022-12-15T19:25:25.082Z,92.00
2022-12-15T19:27:58.695Z,91.70
2022-12-15T19:30:28.335Z,91.75
2022-12-15T19:32:56.767Z,92.20
2022-12-15T19:35:25.050Z,92.41
2022-12-15T19:37:55.069Z,92.54
2022-12-15T19:40:27.656Z,92.67
2022-12-15T19:42:56.119Z,92.61
2022-12-15T19:45:25.566Z,92.76
2022-12-15T19:47:53.610Z,92.57
2022-12-15T19:50:23.339Z,92.93
2022-12-15T19:52:53.128Z,93.12
2022-12-15T19:55:24.710Z,93.39
2022-12-15T19:57:54.000Z,93.38
2022-12-15T20:00:23.058Z,93.28
2022-12-15T20:02:52.032Z,93.25
2022-12-15T20:05:23.350Z,93.47
2022-12-15T20:07:52.504Z,93.56
2022-12-15T20:10:26.176Z,93.66
2022-12-15T20:13:03.319Z,93.28
2022-12-15T20:15:31.292Z,93.37
2022-12-15T20:17:59.270Z,93.58
2022-12-15T20:20:28.711Z,93.66
2022-12-15T20:22:58.289Z,93.75
2022-12-15T20:25:27.288Z,93.84
2022-12-15T20:27:57.838Z,93.72
2022-12-15T20:30:27.907Z,93.49
2022-12-15T20:32:55.923Z,93.27
2022-12-15T20:35:24.196Z,93.24
2022-12-15T20:37:52.578Z,93.17
2022-12-15T20:40:22.328Z,93.17
2022-12-15T20:42:50.259Z,93.41
2022-12-15T20:45:19.779Z,93.36
2022-12-15T20:47:49.730Z,93.27
2022-12-15T20:50:25.973Z,93.12
2022-12-15T20:52:54.926Z,92.67
2022-12-15T20:55:29.324Z,93.10
2022-12-15T20:57:57.216Z,93.25
2022-12-15T21:00:25.810Z,92.91
2022-12-15T21:02:55.554Z,92.71
2022-12-15T21:05:24.856Z,92.26
2022-12-15T21:07:53.046Z,92.62
2022-12-15T21:10:21.500Z,92.65
2022-12-15T21:12:50.841Z,92.87
2022-12-15T21:15:20.389Z,92.69
2022-12-15T21:17:57.328Z,92.91
2022-12-15T21:20:33.210Z,92.91
2022-12-15T21:23:01.507Z,92.84
2022-12-15T21:25:29.550Z,92.69
2022-12-15T21:27:57.556Z,92.66
2022-12-15T21:30:25.884Z,92.77
2022-12-15T21:32:53.861Z,92.91
2022-12-15T21:35:25.145Z,92.85
2022-12-15T21:37:57.989Z,93.04
2022-12-15T21:40:28.792Z,92.74
2022-12-15T21:42:58.366Z,92.88
2022-12-15T21:45:27.447Z,92.48
2022-12-15T21:48:12.545Z,92.42
2022-12-15T21:50:43.181Z,92.64
2022-12-15T21:53:16.020Z,92.58
2022-12-15T21:55:45.884Z,92.81
2022-12-15T21:58:18.911Z,92.81
2022-12-15T22:00:47.389Z,92.78
2022-12-15T22:03:15.359Z,92.81
2022-12-15T22:05:43.274Z,92.75
2022-12-15T22:08:21.665Z,92.79
2022-12-15T22:10:50.942Z,92.60
2022-12-15T22:13:20.984Z,92.79
2022-12-15T22:15:50.682Z,92.62
2022-12-15T22:18:22.694Z,92.81
2022-12-15T22:20:52.759Z,92.92
2022-12-15T22:23:22.032Z,92.76
2022-12-15T22:25:51.707Z,92.82
2022-12-15T22:28:21.997Z,92.73
2022-12-15T22:30:50.547Z,92.77
2022-12-15T22:33:23.781Z,92.76
2022-12-15T22:35:52.245Z,92.60
2022-12-15T22:38:24.688Z,92.66
2022-12-15T22:40:55.525Z,92.66
2022-12-15T22:43:26.951Z,92.46
2022-12-15T22:45:56.265Z,92.75
2022-12-15T22:48:28.827Z,92.66
2022-12-15T22:50:57.265Z,92.67
2022-12-15T22:53:27.746Z,92.60
2022-12-15T22:55:56.210Z,92.73
2022-12-15T22:58:25.810Z,92.58
2022-12-15T23:00:55.653Z,92.64
2022-12-15T23:03:26.915Z,92.66
2022-12-15T23:05:55.094Z,92.52
2022-12-15T23:08:22.914Z,92.58
2022-12-15T23:11:10.252Z,92.58
2022-12-15T23:13:38.100Z,92.56
2022-12-15T23:16:22.010Z,92.72
2022-12-15T23:18:50.579Z,92.76
2022-12-15T23:21:19.909Z,92.96
2022-12-15T23:23:48.060Z,93.04
2022-12-15T23:26:18.001Z,92.81
2022-12-15T23:28:46.292Z,92.96
2022-12-15T23:31:14.207Z,93.02
2022-12-15T23:33:42.391Z,92.83
2022-12-15T23:36:11.124Z,92.92
2022-12-15T23:38:39.466Z,92.89
2022-12-15T23:41:07.459Z,92.78
2022-12-15T23:43:37.818Z,92.61
2022-12-15T23:46:06.542Z,92.68
2022-12-15T23:48:36.011Z,92.51
2022-12-15T23:51:05.400Z,92.67
2022-12-15T23:53:34.181Z,92.66
2022-12-15T23:56:09.623Z,92.90
2022-12-15T23:58:39.389Z,92.50
